Alyeska Resort
Hourly Weather - Mid Mountian Site
ALY_MID_HR 9/30/2014
CLICK TO VIEW GRAPH!!

        DATE  TIME   Air   H2o   H2o   New  Snow  BATT   Rel
                    Temp  Inch Since  Snow Depth  Volt  Hum%
                      F   1HR  0600   1HR         AVG   AVG

   9/30/2014 19:00    41  0.00  0.00  -0.4  4.13 13.29    46
   9/30/2014 18:00    44  0.00  0.00  -0.5  9.15 13.27    41
   9/30/2014 17:00    46  0.00  0.00  -0.5  9.01 13.26    37
   9/30/2014 16:00    46  0.00  0.00  -0.4  4.98 13.28    38
   9/30/2014 15:00    45  0.00  0.00  -0.5  8.32 13.30    41
   9/30/2014 14:00    44  0.00  0.00  -0.5  7.91 13.33    43
   9/30/2014 13:00    43  0.00  0.00  -0.6  4.76 13.37    40
   9/30/2014 12:00    40  0.00  0.00  -0.6  4.17 13.41    44
   9/30/2014 11:00    34  0.00  0.00  -0.3  2.94 13.44    54
   9/30/2014 10:00    33  0.00  0.00  -0.3  8.13 13.44    58
   9/30/2014 09:00    33  0.00  0.00  -0.3  7.40 13.44    57
   9/30/2014 08:00    34  0.00  0.00  -0.3  8.21 13.43    57
   9/30/2014 07:00    34  0.00  0.00  -0.3  5.39 13.43    61
   9/30/2014 06:00    34  0.00  0.00  -0.3  8.25 13.42    61
   9/30/2014 05:00    35  0.00  0.00  -0.3  9.30 13.41    61
   9/30/2014 04:00    35  0.00  0.00  -0.4  7.84 13.41    61
   9/30/2014 03:00    35  0.00  0.00  -0.4  4.21 13.40    60
   9/30/2014 02:00    36  0.00  0.00  -0.4  7.73 13.39    61
   9/30/2014 01:00    36  0.00  0.00  -0.4  8.16 13.38    61
   9/29/2014 24:00    37  0.00  0.00  -0.4  7.92 13.36    59
   9/29/2014 23:00    38  0.00  0.00  -0.2  7.55 13.35    61
   9/29/2014 22:00    40  0.00  0.00  -0.4  7.82 13.34    64
   9/29/2014 21:00    39  0.00  0.00  -0.4  6.91 13.34    70
   9/29/2014 20:00    39  0.00  0.00  -0.4  3.88 13.33    74


CLICK TO VIEW GRAPH!!